N335B CYHZ-CYHZ
Flight info
| Callsign | N335B |
|---|---|
| Flight time | 0h 39m |
| Altitude | 6000 |
| Route | IGTAS DCT NOTOP DCT YQY DCT AGMIR LIRLA5 |
| Aircraft | C310/L-SDFGR/S |
Departure
| Time | 2026-04-28 01:23 |
|---|---|
| Airport | Halifax / Stanfield International Airport (CYHZ) |
Arrival
| Time | 2026-04-28 02:03 |
|---|---|
| Airport | Halifax / Stanfield International Airport (CYHZ) |
| Time | Latitude | Longitude | Altitude | Speed | Heading |
|---|---|---|---|---|---|
| 2026-04-28 01:14 | 44.88371 | -63.51482 | 447 ft | 0 kts | 304° |
| 2026-04-28 01:16 | 44.88372 | -63.51467 | 447 ft | 8 kts | 115° |
| 2026-04-28 01:17 | 44.88378 | -63.51357 | 447 ft | 18 kts | 69° |
| 2026-04-28 01:17 | 44.88462 | -63.51209 | 447 ft | 20 kts | 20° |
| 2026-04-28 01:17 | 44.88589 | -63.51236 | 447 ft | 25 kts | 351° |
| 2026-04-28 01:17 | 44.88866 | -63.51302 | 447 ft | 43 kts | 350° |
| 2026-04-28 01:18 | 44.89006 | -63.51287 | 446 ft | 1 kts | 32° |
| 2026-04-28 01:18 | 44.89007 | -63.51286 | 446 ft | 0 kts | 33° |
| 2026-04-28 01:19 | 44.89021 | -63.51274 | 446 ft | 4 kts | 44° |
| 2026-04-28 01:19 | 44.89024 | -63.51269 | 446 ft | 0 kts | 43° |
| 2026-04-28 01:20 | 44.89025 | -63.51268 | 446 ft | 2 kts | 30° |
| 2026-04-28 01:20 | 44.89026 | -63.51268 | 446 ft | 0 kts | 31° |
| 2026-04-28 01:21 | 44.89066 | -63.51229 | 441 ft | 19 kts | 45° |
| 2026-04-28 01:21 | 44.89040 | -63.51077 | 443 ft | 12 kts | 124° |
| 2026-04-28 01:21 | 44.89027 | -63.51048 | 443 ft | 0 kts | 120° |
| 2026-04-28 01:22 | 44.88929 | -63.50849 | 445 ft | 56 kts | 123° |
| 2026-04-28 01:22 | 44.88619 | -63.50204 | 501 ft | 96 kts | 120° |
| 2026-04-28 01:22 | 44.88215 | -63.49402 | 742 ft | 105 kts | 121° |
| 2026-04-28 01:23 | 44.87792 | -63.48420 | 991 ft | 126 kts | 120° |
| 2026-04-28 01:23 | 44.87276 | -63.47357 | 1269 ft | 138 kts | 122° |
| 2026-04-28 01:23 | 44.87056 | -63.46122 | 1752 ft | 133 kts | 76° |
| 2026-04-28 01:23 | 44.87605 | -63.45110 | 2111 ft | 137 kts | 30° |
| 2026-04-28 01:24 | 44.88470 | -63.44402 | 2355 ft | 149 kts | 23° |
| 2026-04-28 01:24 | 44.89418 | -63.43738 | 2625 ft | 154 kts | 22° |
| 2026-04-28 01:24 | 44.90445 | -63.43406 | 2940 ft | 154 kts | 346° |
| 2026-04-28 01:24 | 44.91346 | -63.44142 | 3261 ft | 153 kts | 315° |
| 2026-04-28 01:25 | 44.91998 | -63.45319 | 3568 ft | 153 kts | 303° |
| 2026-04-28 01:25 | 44.92626 | -63.46547 | 3869 ft | 155 kts | 302° |
| 2026-04-28 01:25 | 44.93258 | -63.47793 | 4117 ft | 160 kts | 302° |
| 2026-04-28 01:25 | 44.93968 | -63.49237 | 3537 ft | 198 kts | 302° |
| 2026-04-28 01:26 | 44.94793 | -63.50929 | 2804 ft | 217 kts | 301° |
| 2026-04-28 01:26 | 44.95657 | -63.52720 | 2069 ft | 222 kts | 301° |
| 2026-04-28 01:26 | 44.96526 | -63.54534 | 1328 ft | 223 kts | 301° |
| 2026-04-28 01:26 | 44.97284 | -63.56391 | 1022 ft | 209 kts | 284° |
| 2026-04-28 01:27 | 44.97166 | -63.58304 | 1021 ft | 194 kts | 242° |
| 2026-04-28 01:27 | 44.96262 | -63.59616 | 1010 ft | 185 kts | 213° |
| 2026-04-28 01:27 | 44.95208 | -63.60651 | 1001 ft | 184 kts | 212° |
| 2026-04-28 01:27 | 44.94163 | -63.61646 | 996 ft | 183 kts | 211° |
| 2026-04-28 01:28 | 44.92952 | -63.62033 | 1025 ft | 183 kts | 168° |
| 2026-04-28 01:28 | 44.91889 | -63.61094 | 1023 ft | 184 kts | 127° |
| 2026-04-28 01:28 | 44.91384 | -63.59465 | 1015 ft | 174 kts | 99° |
| 2026-04-28 01:28 | 44.91182 | -63.57942 | 991 ft | 144 kts | 98° |
| 2026-04-28 01:29 | 44.91016 | -63.56665 | 985 ft | 121 kts | 98° |
| 2026-04-28 01:29 | 44.90860 | -63.55592 | 976 ft | 103 kts | 108° |
| 2026-04-28 01:29 | 44.90612 | -63.54729 | 945 ft | 89 kts | 112° |
| 2026-04-28 01:29 | 44.90358 | -63.53817 | 878 ft | 121 kts | 109° |
| 2026-04-28 01:30 | 44.89903 | -63.52740 | 738 ft | 127 kts | 126° |
| 2026-04-28 01:30 | 44.89380 | -63.51742 | 490 ft | 126 kts | 124° |
| 2026-04-28 01:30 | 44.88910 | -63.50782 | 482 ft | 107 kts | 125° |
| 2026-04-28 01:30 | 44.88437 | -63.49843 | 676 ft | 130 kts | 125° |
| 2026-04-28 01:31 | 44.87955 | -63.48649 | 849 ft | 147 kts | 121° |
| 2026-04-28 01:31 | 44.87357 | -63.47434 | 1009 ft | 161 kts | 122° |
| 2026-04-28 01:31 | 44.86705 | -63.46062 | 1019 ft | 174 kts | 117° |
| 2026-04-28 01:31 | 44.86585 | -63.44383 | 1031 ft | 180 kts | 70° |
| 2026-04-28 01:32 | 44.87357 | -63.43020 | 1022 ft | 182 kts | 34° |
| 2026-04-28 01:32 | 44.88385 | -63.41970 | 1012 ft | 183 kts | 33° |
| 2026-04-28 01:32 | 44.89434 | -63.40938 | 1013 ft | 184 kts | 30° |
| 2026-04-28 01:32 | 44.90652 | -63.40603 | 1026 ft | 183 kts | 346° |
| 2026-04-28 01:33 | 44.91765 | -63.41425 | 1008 ft | 182 kts | 323° |
| 2026-04-28 01:33 | 44.92812 | -63.42436 | 1008 ft | 182 kts | 322° |
| 2026-04-28 01:33 | 44.93813 | -63.43525 | 1018 ft | 182 kts | 310° |
| 2026-04-28 01:33 | 44.94562 | -63.44964 | 1005 ft | 182 kts | 302° |
| 2026-04-28 01:34 | 44.95288 | -63.46423 | 1003 ft | 182 kts | 302° |
| 2026-04-28 01:34 | 44.96009 | -63.47896 | 1002 ft | 183 kts | 300° |
| 2026-04-28 01:34 | 44.96571 | -63.49495 | 1013 ft | 181 kts | 289° |
| 2026-04-28 01:34 | 44.96550 | -63.51229 | 1026 ft | 182 kts | 244° |
| 2026-04-28 01:35 | 44.95693 | -63.52507 | 1014 ft | 182 kts | 213° |
| 2026-04-28 01:35 | 44.94652 | -63.53528 | 1006 ft | 182 kts | 212° |
| 2026-04-28 01:35 | 44.93681 | -63.54462 | 993 ft | 154 kts | 213° |
| 2026-04-28 01:35 | 44.92906 | -63.55222 | 986 ft | 115 kts | 213° |
| 2026-04-28 01:36 | 44.92334 | -63.55784 | 975 ft | 87 kts | 213° |
| 2026-04-28 01:36 | 44.91865 | -63.56241 | 905 ft | 80 kts | 213° |
| 2026-04-28 01:36 | 44.91449 | -63.56244 | 982 ft | 67 kts | 128° |
| 2026-04-28 01:36 | 44.91125 | -63.55657 | 1017 ft | 84 kts | 124° |
| 2026-04-28 01:37 | 44.90813 | -63.54902 | 1016 ft | 95 kts | 112° |
| 2026-04-28 01:37 | 44.90531 | -63.54114 | 892 ft | 90 kts | 120° |
| 2026-04-28 01:37 | 44.90161 | -63.53304 | 801 ft | 105 kts | 123° |
| 2026-04-28 01:37 | 44.89733 | -63.52421 | 657 ft | 111 kts | 122° |
| 2026-04-28 01:38 | 44.89344 | -63.51664 | 473 ft | 81 kts | 124° |
| 2026-04-28 01:38 | 44.89045 | -63.51082 | 491 ft | 78 kts | 124° |
| 2026-04-28 01:38 | 44.88643 | -63.50301 | 615 ft | 116 kts | 124° |
| 2026-04-28 01:38 | 44.88131 | -63.49259 | 786 ft | 140 kts | 123° |
| 2026-04-28 01:39 | 44.87546 | -63.48058 | 953 ft | 156 kts | 123° |
| 2026-04-28 01:39 | 44.86917 | -63.46759 | 1015 ft | 169 kts | 122° |
| 2026-04-28 01:39 | 44.86855 | -63.45395 | 1626 ft | 142 kts | 38° |
| 2026-04-28 01:39 | 44.87838 | -63.45384 | 1711 ft | 158 kts | 337° |
| 2026-04-28 01:40 | 44.88872 | -63.46015 | 1708 ft | 174 kts | 329° |
| 2026-04-28 01:40 | 44.89867 | -63.47169 | 1409 ft | 190 kts | 309° |
| 2026-04-28 01:40 | 44.90707 | -63.48600 | 1239 ft | 192 kts | 306° |
| 2026-04-28 01:40 | 44.91514 | -63.50052 | 1314 ft | 182 kts | 305° |
| 2026-04-28 01:41 | 44.92327 | -63.51375 | 1462 ft | 176 kts | 309° |
| 2026-04-28 01:41 | 44.93092 | -63.52723 | 1555 ft | 176 kts | 303° |
| 2026-04-28 01:41 | 44.93775 | -63.54120 | 1715 ft | 170 kts | 288° |
| 2026-04-28 01:41 | 44.93231 | -63.55308 | 1669 ft | 184 kts | 181° |
| 2026-04-28 01:42 | 44.91976 | -63.54911 | 1585 ft | 186 kts | 158° |
| 2026-04-28 01:42 | 44.90853 | -63.54074 | 1304 ft | 173 kts | 142° |
| 2026-04-28 01:42 | 44.90162 | -63.53180 | 980 ft | 109 kts | 128° |
| 2026-04-28 01:42 | 44.89746 | -63.52440 | 695 ft | 87 kts | 130° |
| 2026-04-28 01:43 | 44.89396 | -63.51775 | 537 ft | 94 kts | 122° |
| 2026-04-28 01:43 | 44.89059 | -63.51082 | 443 ft | 72 kts | 124° |
| 2026-04-28 01:43 | 44.88814 | -63.50621 | 446 ft | 50 kts | 125° |
| 2026-04-28 01:43 | 44.88564 | -63.50139 | 437 ft | 65 kts | 119° |
| 2026-04-28 01:44 | 44.88277 | -63.49544 | 520 ft | 79 kts | 126° |
| 2026-04-28 01:44 | 44.87960 | -63.48925 | 670 ft | 77 kts | 129° |
| 2026-04-28 01:44 | 44.87641 | -63.48347 | 784 ft | 71 kts | 129° |
| 2026-04-28 01:44 | 44.87350 | -63.47798 | 863 ft | 70 kts | 126° |
| 2026-04-28 01:45 | 44.87073 | -63.47266 | 935 ft | 61 kts | 128° |
| 2026-04-28 01:45 | 44.86788 | -63.46762 | 909 ft | 75 kts | 127° |
| 2026-04-28 01:45 | 44.86451 | -63.46223 | 911 ft | 78 kts | 135° |
| 2026-04-28 01:45 | 44.86101 | -63.45723 | 782 ft | 68 kts | 137° |
| 2026-04-28 01:46 | 44.85741 | -63.45301 | 992 ft | 60 kts | 139° |
| 2026-04-28 01:46 | 44.85407 | -63.44883 | 1146 ft | 65 kts | 140° |
| 2026-04-28 01:46 | 44.85248 | -63.44300 | 1317 ft | 64 kts | 94° |
| 2026-04-28 01:46 | 44.85400 | -63.43695 | 1433 ft | 75 kts | 44° |
| 2026-04-28 01:47 | 44.85812 | -63.43254 | 1448 ft | 63 kts | 35° |
| 2026-04-28 01:47 | 44.86282 | -63.43081 | 1437 ft | 101 kts | 335° |
| 2026-04-28 01:47 | 44.86980 | -63.43771 | 1434 ft | 141 kts | 324° |
| 2026-04-28 01:47 | 44.87828 | -63.44576 | 1636 ft | 155 kts | 326° |
| 2026-04-28 01:48 | 44.88587 | -63.45646 | 1613 ft | 146 kts | 306° |
| 2026-04-28 01:48 | 44.89092 | -63.46758 | 1617 ft | 126 kts | 301° |
| 2026-04-28 01:48 | 44.89532 | -63.47736 | 1617 ft | 115 kts | 305° |
| 2026-04-28 01:48 | 44.90046 | -63.48762 | 1715 ft | 143 kts | 305° |
| 2026-04-28 01:49 | 44.90538 | -63.49853 | 1853 ft | 115 kts | 291° |
| 2026-04-28 01:49 | 44.90781 | -63.50768 | 1959 ft | 88 kts | 295° |
| 2026-04-28 01:49 | 44.91091 | -63.51657 | 1920 ft | 112 kts | 297° |
| 2026-04-28 01:49 | 44.91509 | -63.52588 | 1800 ft | 124 kts | 268° |
| 2026-04-28 01:50 | 44.91662 | -63.53657 | 1892 ft | 101 kts | 284° |
| 2026-04-28 01:50 | 44.91694 | -63.54673 | 1899 ft | 112 kts | 259° |
| 2026-04-28 01:50 | 44.91150 | -63.55350 | 1887 ft | 108 kts | 175° |
| 2026-04-28 01:50 | 44.90684 | -63.54411 | 1233 ft | 140 kts | 110° |
| 2026-04-28 01:51 | 44.90232 | -63.53191 | 835 ft | 143 kts | 129° |
| 2026-04-28 01:51 | 44.89522 | -63.52031 | 561 ft | 174 kts | 126° |
| 2026-04-28 01:51 | 44.88807 | -63.50604 | 454 ft | 181 kts | 124° |
| 2026-04-28 01:51 | 44.88103 | -63.49193 | 570 ft | 164 kts | 135° |
| 2026-04-28 01:52 | 44.87801 | -63.48601 | 1305 ft | 77 kts | 137° |
| 2026-04-28 01:52 | 44.87457 | -63.47920 | 1374 ft | 86 kts | 139° |
| 2026-04-28 01:52 | 44.87020 | -63.47322 | 1417 ft | 97 kts | 147° |
| 2026-04-28 01:52 | 44.86609 | -63.46654 | 1574 ft | 93 kts | 135° |
| 2026-04-28 01:53 | 44.86258 | -63.46012 | 1808 ft | 79 kts | 143° |
| 2026-04-28 01:53 | 44.85857 | -63.45375 | 1858 ft | 93 kts | 143° |
| 2026-04-28 01:53 | 44.85432 | -63.44673 | 1928 ft | 90 kts | 137° |
| 2026-04-28 01:53 | 44.85131 | -63.44065 | 1860 ft | 65 kts | 134° |
| 2026-04-28 01:54 | 44.84840 | -63.43469 | 1883 ft | 83 kts | 140° |
| 2026-04-28 01:54 | 44.84494 | -63.42786 | 2012 ft | 87 kts | 134° |
| 2026-04-28 01:54 | 44.84160 | -63.42059 | 2089 ft | 94 kts | 112° |
| 2026-04-28 01:54 | 44.84454 | -63.41279 | 2185 ft | 108 kts | 27° |
| 2026-04-28 01:55 | 44.85256 | -63.41304 | 2248 ft | 138 kts | 351° |
| 2026-04-28 01:55 | 44.86191 | -63.42042 | 1962 ft | 171 kts | 332° |
| 2026-04-28 01:55 | 44.87110 | -63.43151 | 1870 ft | 174 kts | 330° |
| 2026-04-28 01:55 | 44.88127 | -63.43961 | 2031 ft | 165 kts | 345° |
| 2026-04-28 01:56 | 44.89189 | -63.44651 | 1966 ft | 171 kts | 338° |
| 2026-04-28 01:56 | 44.90083 | -63.45678 | 2040 ft | 158 kts | 317° |
| 2026-04-28 01:56 | 44.90555 | -63.46948 | 2036 ft | 145 kts | 307° |
| 2026-04-28 01:56 | 44.91044 | -63.48142 | 2076 ft | 130 kts | 310° |
| 2026-04-28 01:57 | 44.91474 | -63.49127 | 2101 ft | 115 kts | 310° |
| 2026-04-28 01:57 | 44.91930 | -63.50075 | 2116 ft | 118 kts | 310° |
| 2026-04-28 01:57 | 44.92360 | -63.51054 | 2224 ft | 110 kts | 309° |
| 2026-04-28 01:57 | 44.92758 | -63.51964 | 2183 ft | 123 kts | 314° |
| 2026-04-28 01:58 | 44.93307 | -63.53005 | 2273 ft | 144 kts | 307° |
| 2026-04-28 01:58 | 44.93859 | -63.54156 | 2252 ft | 118 kts | 318° |
| 2026-04-28 01:58 | 44.94075 | -63.55041 | 2242 ft | 101 kts | 264° |
| 2026-04-28 01:58 | 44.93678 | -63.55741 | 2161 ft | 89 kts | 212° |
| 2026-04-28 01:59 | 44.93075 | -63.55996 | 1831 ft | 99 kts | 210° |
| 2026-04-28 01:59 | 44.92425 | -63.56378 | 1607 ft | 97 kts | 212° |
| 2026-04-28 01:59 | 44.91831 | -63.56727 | 1410 ft | 90 kts | 220° |
| 2026-04-28 01:59 | 44.91289 | -63.57198 | 1157 ft | 90 kts | 221° |
| 2026-04-28 02:00 | 44.90804 | -63.57695 | 959 ft | 89 kts | 215° |
| 2026-04-28 02:00 | 44.90700 | -63.58281 | 927 ft | 103 kts | 0° |
| 2026-04-28 02:00 | 44.91139 | -63.57444 | 892 ft | 109 kts | 86° |
| 2026-04-28 02:00 | 44.91254 | -63.56313 | 912 ft | 129 kts | 94° |
| 2026-04-28 02:01 | 44.91054 | -63.55021 | 987 ft | 147 kts | 134° |
| 2026-04-28 02:01 | 44.90559 | -63.55255 | 1433 ft | 125 kts | 323° |
| 2026-04-28 02:01 | 44.90858 | -63.54119 | 735 ft | 163 kts | 132° |
| 2026-04-28 02:01 | 44.90121 | -63.53274 | 798 ft | 125 kts | 139° |
| 2026-04-28 02:02 | 44.89688 | -63.52344 | 647 ft | 92 kts | 133° |
| 2026-04-28 02:02 | 44.89285 | -63.51557 | 481 ft | 110 kts | 135° |
| 2026-04-28 02:02 | 44.88856 | -63.50721 | 439 ft | 89 kts | 136° |
| 2026-04-28 02:02 | 44.88610 | -63.50167 | 442 ft | 50 kts | 152° |
| 2026-04-28 02:03 | 44.88412 | -63.49890 | 440 ft | 29 kts | 163° |
| 2026-04-28 02:03 | 44.88345 | -63.49884 | 446 ft | 4 kts | 212° |
| 2026-04-28 02:03 | 44.88329 | -63.49899 | 446 ft | 3 kts | 216° |
| 2026-04-28 02:03 | 44.88304 | -63.49931 | 446 ft | 6 kts | 232° |
| 2026-04-28 02:04 | 44.88308 | -63.50008 | 446 ft | 10 kts | 290° |
| 2026-04-28 02:04 | 44.88346 | -63.50106 | 446 ft | 13 kts | 302° |
| 2026-04-28 02:04 | 44.88388 | -63.50201 | 446 ft | 8 kts | 259° |
| 2026-04-28 02:04 | 44.88370 | -63.50359 | 447 ft | 23 kts | 252° |
| 2026-04-28 02:05 | 44.88336 | -63.50565 | 447 ft | 20 kts | 262° |
| 2026-04-28 02:05 | 44.88325 | -63.50725 | 447 ft | 9 kts | 264° |
| 2026-04-28 02:05 | 44.88323 | -63.50751 | 447 ft | 0 kts | 264° |
| 2026-04-28 02:06 | 44.88320 | -63.50840 | 446 ft | 13 kts | 266° |
| 2026-04-28 02:06 | 44.88315 | -63.50961 | 445 ft | 12 kts | 272° |
| 2026-04-28 02:06 | 44.88337 | -63.51052 | 438 ft | 8 kts | 303° |
| 2026-04-28 02:06 | 44.88362 | -63.51100 | 446 ft | 4 kts | 306° |
| 2026-04-28 02:07 | 44.88378 | -63.51134 | 446 ft | 5 kts | 301° |
| 2026-04-28 02:07 | 44.88388 | -63.51195 | 447 ft | 6 kts | 242° |
| 2026-04-28 02:07 | 44.88373 | -63.51250 | 447 ft | 8 kts | 273° |
| 2026-04-28 02:07 | 44.88412 | -63.51295 | 447 ft | 3 kts | 318° |
| 2026-04-28 02:08 | 44.88422 | -63.51307 | 447 ft | 0 kts | 319° |